createdAt,value
2022-10-11T00:01:05.246Z,17.10
2022-10-11T00:03:35.138Z,17.10
2022-10-11T00:06:06.001Z,17.00
2022-10-11T00:08:34.860Z,17.00
2022-10-11T00:11:07.712Z,17.00
2022-10-11T00:13:36.803Z,17.00
2022-10-11T00:16:09.460Z,17.00
2022-10-11T00:18:39.981Z,16.90
2022-10-11T00:21:11.830Z,16.90
2022-10-11T00:23:40.519Z,16.80
2022-10-11T00:26:10.853Z,16.80
2022-10-11T00:28:39.376Z,16.80
2022-10-11T00:31:12.167Z,16.80
2022-10-11T00:33:44.097Z,16.80
2022-10-11T00:36:14.619Z,16.80
2022-10-11T00:38:45.721Z,16.70
2022-10-11T00:41:14.047Z,16.70
2022-10-11T00:43:44.607Z,16.70
2022-10-11T00:46:33.075Z,16.70
2022-10-11T00:49:08.345Z,16.70
2022-10-11T00:51:44.495Z,16.70
2022-10-11T00:54:16.196Z,16.60
2022-10-11T00:56:49.161Z,16.60
2022-10-11T00:59:21.780Z,16.50
2022-10-11T01:01:50.260Z,16.50
2022-10-11T01:04:20.140Z,16.40
2022-10-11T01:06:49.754Z,16.40
2022-10-11T01:09:19.066Z,16.50
2022-10-11T01:11:48.724Z,16.60
2022-10-11T01:14:44.415Z,16.60
2022-10-11T01:17:22.925Z,16.80
2022-10-11T01:20:09.159Z,16.80
2022-10-11T01:23:08.790Z,16.80
2022-10-11T01:25:46.787Z,16.70
2022-10-11T01:28:26.241Z,16.60
2022-10-11T01:31:02.915Z,16.50
2022-10-11T01:33:36.856Z,16.50
2022-10-11T01:36:13.616Z,16.50
2022-10-11T01:38:48.020Z,16.50
2022-10-11T01:41:20.340Z,16.50
2022-10-11T01:43:50.799Z,16.50
2022-10-11T01:46:21.229Z,16.40
2022-10-11T01:48:50.734Z,16.40
2022-10-11T01:51:22.937Z,16.40
2022-10-11T01:54:22.515Z,16.30
2022-10-11T01:57:22.724Z,16.30
2022-10-11T02:00:00.016Z,16.20
2022-10-11T02:02:47.849Z,16.20
2022-10-11T02:05:25.002Z,16.20
2022-10-11T02:08:02.163Z,16.10
2022-10-11T02:10:35.977Z,16.20
2022-10-11T02:13:10.513Z,16.10
2022-10-11T02:15:42.520Z,16.10
2022-10-11T02:18:17.536Z,16.00
2022-10-11T02:20:48.156Z,16.00
2022-10-11T02:23:21.967Z,15.90
2022-10-11T02:25:51.115Z,16.00
2022-10-11T02:28:22.336Z,15.90
2022-10-11T02:30:53.009Z,15.80
2022-10-11T02:33:27.913Z,15.80
2022-10-11T02:36:02.800Z,15.80
2022-10-11T02:38:38.762Z,15.70
2022-10-11T02:41:14.185Z,15.80
2022-10-11T02:43:50.466Z,15.80
2022-10-11T02:46:19.352Z,15.80
2022-10-11T02:48:49.292Z,15.80
2022-10-11T02:51:20.219Z,15.80
2022-10-11T02:53:50.580Z,15.70
2022-10-11T02:56:20.874Z,15.70
2022-10-11T02:58:49.171Z,15.70
2022-10-11T03:01:17.404Z,15.60
2022-10-11T03:03:45.713Z,15.50
2022-10-11T03:06:15.348Z,15.50
2022-10-11T03:08:43.591Z,15.60
2022-10-11T03:11:11.805Z,15.60
2022-10-11T03:13:40.080Z,15.60
2022-10-11T03:16:08.710Z,15.60
2022-10-11T03:18:37.209Z,15.60
2022-10-11T03:21:05.614Z,15.50
2022-10-11T03:23:35.443Z,15.50
2022-10-11T03:26:04.049Z,15.50
2022-10-11T03:28:32.666Z,15.50
2022-10-11T03:31:03.038Z,15.40
2022-10-11T03:33:31.295Z,15.30
2022-10-11T03:35:59.517Z,15.30
2022-10-11T03:38:28.229Z,15.30
2022-10-11T03:40:57.869Z,15.30
2022-10-11T03:43:26.264Z,15.20
2022-10-11T03:45:54.463Z,15.20
2022-10-11T03:48:22.707Z,15.10
2022-10-11T03:50:51.189Z,15.10
2022-10-11T03:53:19.389Z,15.10
2022-10-11T03:55:47.655Z,15.00
2022-10-11T03:58:17.208Z,15.00
2022-10-11T04:00:45.636Z,15.10
2022-10-11T04:03:14.208Z,15.10
2022-10-11T04:05:42.778Z,15.10
2022-10-11T04:08:12.285Z,15.10
2022-10-11T04:10:41.068Z,15.10
2022-10-11T04:13:11.729Z,15.10
2022-10-11T04:15:42.384Z,15.10
2022-10-11T04:18:12.910Z,15.00
2022-10-11T04:20:41.138Z,15.00
2022-10-11T04:23:09.355Z,14.90
2022-10-11T04:25:40.050Z,14.90
2022-10-11T04:28:09.473Z,14.90
2022-10-11T04:30:37.925Z,14.90
2022-10-11T04:33:07.712Z,14.80
2022-10-11T04:35:35.908Z,14.80
2022-10-11T04:38:04.450Z,14.80
2022-10-11T04:40:35.199Z,14.80
2022-10-11T04:43:03.588Z,14.70
2022-10-11T04:45:32.225Z,14.60
2022-10-11T04:48:00.555Z,14.60
2022-10-11T04:50:30.184Z,14.60
2022-10-11T04:52:58.978Z,14.60
2022-10-11T04:55:27.302Z,14.70
2022-10-11T04:57:55.727Z,14.70
2022-10-11T05:00:27.484Z,14.80
2022-10-11T05:02:58.111Z,14.80
2022-10-11T05:05:26.432Z,14.90
2022-10-11T05:07:56.040Z,14.90
2022-10-11T05:10:26.531Z,14.90
2022-10-11T05:12:54.697Z,14.80
2022-10-11T05:15:22.919Z,14.70
2022-10-11T05:17:53.240Z,14.70
2022-10-11T05:20:23.888Z,14.70
2022-10-11T05:22:52.206Z,14.70
2022-10-11T05:25:21.754Z,14.70
2022-10-11T05:27:49.997Z,14.70
2022-10-11T05:30:18.412Z,14.70
2022-10-11T05:32:46.707Z,14.70
2022-10-11T05:35:15.090Z,14.60
2022-10-11T05:37:43.411Z,14.60
2022-10-11T05:40:12.462Z,14.50
2022-10-11T05:42:42.250Z,14.50
2022-10-11T05:45:11.159Z,14.50
2022-10-11T05:47:39.286Z,14.50
2022-10-11T05:50:08.321Z,14.40
2022-10-11T05:52:36.591Z,14.40
2022-10-11T05:55:04.973Z,14.40
2022-10-11T05:57:34.319Z,14.40
2022-10-11T06:00:04.656Z,14.40
2022-10-11T06:02:40.306Z,14.40
2022-10-11T06:05:09.046Z,14.50
2022-10-11T06:07:37.718Z,14.60
2022-10-11T06:10:08.951Z,14.70
2022-10-11T06:12:37.185Z,14.80
2022-10-11T06:15:08.793Z,14.90
2022-10-11T06:17:37.058Z,15.00
2022-10-11T06:20:06.426Z,15.00
2022-10-11T06:22:34.702Z,15.20
2022-10-11T06:25:02.929Z,15.30
2022-10-11T06:27:31.144Z,15.40
2022-10-11T06:29:59.475Z,15.50
2022-10-11T06:32:29.136Z,15.60
2022-10-11T06:34:57.420Z,15.70
2022-10-11T06:37:25.621Z,15.80
2022-10-11T06:39:53.880Z,16.00
2022-10-11T06:42:22.113Z,16.20
2022-10-11T06:44:52.386Z,16.30
2022-10-11T06:47:20.550Z,16.50
2022-10-11T06:49:50.134Z,16.70
2022-10-11T06:52:20.393Z,16.90
2022-10-11T06:54:50.689Z,17.20
2022-10-11T06:57:18.855Z,17.40
2022-10-11T06:59:47.103Z,17.50
2022-10-11T07:02:15.332Z,17.70
2022-10-11T07:04:45.917Z,17.70
2022-10-11T07:07:16.025Z,17.90
2022-10-11T07:09:44.232Z,18.10
2022-10-11T07:12:12.486Z,18.40
2022-10-11T07:14:40.706Z,18.70
2022-10-11T07:17:08.980Z,18.90
2022-10-11T07:19:37.131Z,19.00
2022-10-11T07:22:05.362Z,19.00
2022-10-11T07:24:35.008Z,19.00
2022-10-11T07:27:03.392Z,19.30
2022-10-11T07:29:31.669Z,19.60
2022-10-11T07:31:59.948Z,19.80
2022-10-11T07:34:28.223Z,19.90
2022-10-11T07:36:58.596Z,19.80
2022-10-11T07:39:31.026Z,20.00
2022-10-11T07:42:00.994Z,20.10
2022-10-11T07:44:29.216Z,20.30
2022-10-11T07:46:57.904Z,20.60
2022-10-11T07:49:26.108Z,20.90
2022-10-11T07:51:56.740Z,21.10
2022-10-11T07:54:25.162Z,21.30
2022-10-11T07:56:53.489Z,21.10
2022-10-11T07:59:23.087Z,21.00
2022-10-11T08:01:51.381Z,21.30
2022-10-11T08:04:21.362Z,21.50
2022-10-11T08:06:52.672Z,21.70
2022-10-11T08:09:21.807Z,21.80
2022-10-11T08:11:50.029Z,21.90
2022-10-11T08:14:19.110Z,22.10
2022-10-11T08:16:49.046Z,22.40
2022-10-11T08:19:18.635Z,22.50
2022-10-11T08:21:46.987Z,22.70
2022-10-11T08:24:15.255Z,22.90
2022-10-11T08:26:45.881Z,23.00
2022-10-11T08:29:14.464Z,23.20
2022-10-11T08:31:44.518Z,23.20
2022-10-11T08:34:14.628Z,23.30
2022-10-11T08:36:42.880Z,23.60
2022-10-11T08:39:12.893Z,23.70
2022-10-11T08:41:46.207Z,23.70
2022-10-11T08:44:58.358Z,23.80
2022-10-11T08:47:28.430Z,23.90
2022-10-11T08:49:59.217Z,24.10
2022-10-11T08:52:32.316Z,24.00
2022-10-11T08:55:04.072Z,24.30
2022-10-11T08:57:36.894Z,24.40
2022-10-11T09:00:08.200Z,24.30
2022-10-11T09:03:07.074Z,24.50
2022-10-11T09:05:37.712Z,24.80
2022-10-11T09:08:11.832Z,24.90
2022-10-11T09:11:00.115Z,25.00
2022-10-11T09:13:59.650Z,24.90
2022-10-11T09:16:42.680Z,24.80
2022-10-11T09:19:31.944Z,24.90
2022-10-11T09:22:09.545Z,25.00
2022-10-11T09:24:52.128Z,25.20
2022-10-11T09:27:33.266Z,25.20
2022-10-11T09:30:16.317Z,25.30
2022-10-11T09:32:47.654Z,25.20
2022-10-11T09:35:18.928Z,25.20
2022-10-11T09:38:00.620Z,25.20
2022-10-11T09:40:46.283Z,25.30
2022-10-11T09:43:16.910Z,25.40
2022-10-11T09:45:49.510Z,25.40
2022-10-11T09:48:22.048Z,25.60
2022-10-11T09:50:51.691Z,25.60
2022-10-11T09:53:22.028Z,25.70
2022-10-11T09:55:55.052Z,25.70
2022-10-11T09:58:31.837Z,25.70
2022-10-11T10:01:07.689Z,25.80
2022-10-11T10:03:39.091Z,25.80
2022-10-11T10:06:16.402Z,25.90
2022-10-11T10:08:47.525Z,25.90
2022-10-11T10:11:16.448Z,26.10
2022-10-11T10:13:50.069Z,26.30
2022-10-11T10:16:24.933Z,26.50
2022-10-11T10:18:55.852Z,26.60
2022-10-11T10:21:30.867Z,26.80
2022-10-11T10:24:06.883Z,26.90
2022-10-11T10:26:35.569Z,27.00
2022-10-11T10:29:18.598Z,27.00
2022-10-11T10:32:13.535Z,27.00
2022-10-11T10:34:56.474Z,27.10
2022-10-11T10:37:30.482Z,27.20
2022-10-11T10:40:06.951Z,27.10
2022-10-11T10:42:35.185Z,27.20
2022-10-11T10:45:07.258Z,27.10
2022-10-11T10:47:54.837Z,27.00
2022-10-11T10:50:27.402Z,26.80
2022-10-11T10:53:14.214Z,26.70
2022-10-11T10:55:46.276Z,26.70
2022-10-11T10:58:34.389Z,26.80
2022-10-11T11:01:09.922Z,26.90
2022-10-11T11:03:45.963Z,27.10
2022-10-11T11:06:24.408Z,27.30
2022-10-11T11:09:04.180Z,27.40
2022-10-11T11:11:46.297Z,27.20
2022-10-11T11:14:26.622Z,26.90
2022-10-11T11:17:07.432Z,26.60
2022-10-11T11:19:48.347Z,26.40
2022-10-11T11:22:30.416Z,26.40
2022-10-11T11:25:15.911Z,26.30
2022-10-11T11:27:54.526Z,26.30
2022-10-11T11:30:25.273Z,26.30
2022-10-11T11:33:02.419Z,26.30
2022-10-11T11:35:34.578Z,26.40
2022-10-11T11:38:11.501Z,26.40
2022-10-11T11:40:43.953Z,26.40
2022-10-11T11:43:23.256Z,26.50
2022-10-11T11:45:54.943Z,26.70
2022-10-11T11:48:25.617Z,26.70
2022-10-11T11:51:01.424Z,26.70
2022-10-11T11:53:48.529Z,26.60
2022-10-11T11:56:28.867Z,26.60
2022-10-11T11:59:06.465Z,26.60
2022-10-11T12:01:42.416Z,26.60
2022-10-11T12:04:17.132Z,26.60
2022-10-11T12:07:11.205Z,26.50
2022-10-11T12:09:35.106Z,26.40
2022-10-11T12:12:06.161Z,26.30
2022-10-11T12:14:41.173Z,26.20
2022-10-11T12:17:19.469Z,26.00
2022-10-11T12:20:15.750Z,25.90
2022-10-11T12:22:58.261Z,25.90
2022-10-11T12:25:44.388Z,25.90
2022-10-11T12:28:48.728Z,26.00
2022-10-11T12:31:24.706Z,26.00
2022-10-11T12:34:15.997Z,25.90
2022-10-11T12:36:46.804Z,25.90
2022-10-11T12:39:54.627Z,26.00
2022-10-11T12:42:31.811Z,26.30
2022-10-11T12:45:25.809Z,26.20
2022-10-11T12:48:12.900Z,26.20
2022-10-11T12:50:51.850Z,26.10
2022-10-11T12:53:38.677Z,26.10
2022-10-11T12:56:13.237Z,26.10
2022-10-11T12:58:42.487Z,26.00
2022-10-11T13:01:20.823Z,26.00
2022-10-11T13:04:05.619Z,26.00
2022-10-11T13:06:39.378Z,26.00
2022-10-11T13:09:17.532Z,26.10
2022-10-11T13:11:50.075Z,26.10
2022-10-11T13:14:23.436Z,26.00
2022-10-11T13:17:05.475Z,25.90
2022-10-11T13:19:37.619Z,25.80
2022-10-11T13:22:16.266Z,25.80
2022-10-11T13:24:44.609Z,25.80
2022-10-11T13:27:20.914Z,25.70
2022-10-11T13:29:50.735Z,25.70
2022-10-11T13:32:24.861Z,25.60
2022-10-11T13:34:57.087Z,25.20
2022-10-11T13:37:28.364Z,25.10
2022-10-11T13:39:57.792Z,24.90
2022-10-11T13:42:30.298Z,25.00
2022-10-11T13:44:59.305Z,25.00
2022-10-11T13:47:30.552Z,25.00
2022-10-11T13:50:12.141Z,24.90
2022-10-11T13:52:55.346Z,25.00
2022-10-11T13:55:26.046Z,24.90
2022-10-11T13:57:54.990Z,24.80
2022-10-11T14:00:25.026Z,24.60
2022-10-11T14:02:56.669Z,24.50
2022-10-11T14:05:28.956Z,24.40
2022-10-11T14:07:58.292Z,24.30
2022-10-11T14:10:27.472Z,24.20
2022-10-11T14:13:23.893Z,24.10
2022-10-11T14:16:08.280Z,24.00
2022-10-11T14:18:42.542Z,24.00
2022-10-11T14:21:31.092Z,24.00
2022-10-11T14:24:01.417Z,24.00
2022-10-11T14:26:34.180Z,24.00
2022-10-11T14:29:06.066Z,24.00
2022-10-11T14:31:39.190Z,23.90
2022-10-11T14:34:14.941Z,24.00
2022-10-11T14:36:44.618Z,24.00
2022-10-11T14:39:16.479Z,24.00
2022-10-11T14:41:44.853Z,23.90
2022-10-11T14:44:13.249Z,23.80
2022-10-11T14:46:42.680Z,23.90
2022-10-11T14:49:15.659Z,24.00
2022-10-11T14:51:50.788Z,24.00
2022-10-11T14:54:22.370Z,24.00
2022-10-11T14:56:51.378Z,24.00
2022-10-11T14:59:22.807Z,23.90
2022-10-11T15:01:54.202Z,23.90
2022-10-11T15:04:24.010Z,23.90
2022-10-11T15:06:55.040Z,23.90
2022-10-11T15:09:23.937Z,23.80
2022-10-11T15:11:54.260Z,23.80
2022-10-11T15:14:25.716Z,23.70
2022-10-11T15:16:54.000Z,23.70
2022-10-11T15:19:26.637Z,23.70
2022-10-11T15:21:56.308Z,23.50
2022-10-11T15:24:24.512Z,23.40
2022-10-11T15:26:52.800Z,23.40
2022-10-11T15:29:22.437Z,23.40
2022-10-11T15:31:50.865Z,23.50
2022-10-11T15:34:19.129Z,23.60
2022-10-11T15:36:47.272Z,23.60
2022-10-11T15:39:25.964Z,23.50
2022-10-11T15:41:54.287Z,23.40
2022-10-11T15:44:22.544Z,23.20
2022-10-11T15:46:53.579Z,23.10
2022-10-11T15:49:21.875Z,23.10
2022-10-11T15:51:50.155Z,23.10
2022-10-11T15:54:18.464Z,23.00
2022-10-11T15:56:50.439Z,23.00
2022-10-11T15:59:18.642Z,22.90
2022-10-11T16:01:49.395Z,22.90
2022-10-11T16:04:17.767Z,22.80
2022-10-11T16:06:48.194Z,22.80
2022-10-11T16:09:18.811Z,22.70
2022-10-11T16:11:46.979Z,22.60
2022-10-11T16:14:16.571Z,22.50
2022-10-11T16:16:44.733Z,22.50
2022-10-11T16:19:15.123Z,22.40
2022-10-11T16:21:43.731Z,22.40
2022-10-11T16:24:11.947Z,22.40
2022-10-11T16:26:40.167Z,22.40
2022-10-11T16:29:08.366Z,22.30
2022-10-11T16:31:40.063Z,22.20
2022-10-11T16:34:10.597Z,22.20
2022-10-11T16:36:42.569Z,22.20
2022-10-11T16:39:14.282Z,22.00
2022-10-11T16:41:42.700Z,22.00
2022-10-11T16:44:13.994Z,21.90
2022-10-11T16:46:47.740Z,21.80
2022-10-11T16:49:16.065Z,21.70
2022-10-11T16:51:44.295Z,21.50
2022-10-11T16:54:16.619Z,21.40
2022-10-11T16:56:48.107Z,21.30
2022-10-11T16:59:16.416Z,21.30
2022-10-11T17:01:46.343Z,21.30
2022-10-11T17:04:14.997Z,21.20
2022-10-11T17:06:43.970Z,21.10
2022-10-11T17:09:12.462Z,21.10
2022-10-11T17:11:40.790Z,21.10
2022-10-11T17:14:13.699Z,21.00
2022-10-11T17:16:41.951Z,20.90
2022-10-11T17:19:13.407Z,20.90
2022-10-11T17:21:41.939Z,20.90
2022-10-11T17:24:10.390Z,20.90
2022-10-11T17:26:41.040Z,20.80
2022-10-11T17:29:13.526Z,20.80
2022-10-11T17:31:48.129Z,20.80
2022-10-11T17:34:19.447Z,20.80
2022-10-11T17:36:48.061Z,20.90
2022-10-11T17:39:19.876Z,20.90
2022-10-11T17:41:48.192Z,21.00
2022-10-11T17:44:18.508Z,21.00
2022-10-11T17:46:47.271Z,21.00
2022-10-11T17:49:15.655Z,21.00
2022-10-11T17:51:47.626Z,21.00
2022-10-11T17:54:16.356Z,20.90
2022-10-11T17:56:44.653Z,20.80
2022-10-11T17:59:17.839Z,20.60
2022-10-11T18:01:48.554Z,20.60
2022-10-11T18:04:17.851Z,20.60
2022-10-11T18:06:49.201Z,20.60
2022-10-11T18:09:19.334Z,20.60
2022-10-11T18:11:48.047Z,20.60
2022-10-11T18:14:16.792Z,20.60
2022-10-11T18:16:47.232Z,20.60
2022-10-11T18:19:17.977Z,20.60
2022-10-11T18:21:47.563Z,20.50
2022-10-11T18:24:17.326Z,20.50
2022-10-11T18:26:48.119Z,20.40
2022-10-11T18:29:16.772Z,20.50
2022-10-11T18:31:45.210Z,20.50
2022-10-11T18:34:15.843Z,20.40
2022-10-11T18:36:44.139Z,20.30
2022-10-11T18:39:15.839Z,20.30
2022-10-11T18:41:45.059Z,20.20
2022-10-11T18:44:15.264Z,20.20
2022-10-11T18:46:44.281Z,20.20
2022-10-11T18:49:16.221Z,20.30
2022-10-11T18:51:46.135Z,20.30
2022-10-11T18:54:20.094Z,20.30
2022-10-11T18:56:49.587Z,20.30
2022-10-11T18:59:17.810Z,20.30
2022-10-11T19:01:46.320Z,20.20
2022-10-11T19:04:16.840Z,20.20
2022-10-11T19:06:48.398Z,20.20
2022-10-11T19:09:21.863Z,20.20
2022-10-11T19:11:51.218Z,20.20
2022-10-11T19:14:21.229Z,20.20
2022-10-11T19:16:51.337Z,20.10
2022-10-11T19:19:21.710Z,20.10
2022-10-11T19:21:50.041Z,20.00
2022-10-11T19:24:22.122Z,20.00
2022-10-11T19:26:50.367Z,20.00
2022-10-11T19:29:20.278Z,20.00
2022-10-11T19:31:50.632Z,20.00
2022-10-11T19:34:19.410Z,19.90
2022-10-11T19:36:50.186Z,19.90
2022-10-11T19:39:21.719Z,19.90
2022-10-11T19:41:50.098Z,20.00
2022-10-11T19:44:21.522Z,20.00
2022-10-11T19:46:52.387Z,20.00
2022-10-11T19:49:24.005Z,20.10
2022-10-11T19:51:52.471Z,20.10
2022-10-11T19:54:22.282Z,20.10
2022-10-11T19:56:50.518Z,20.00
2022-10-11T19:59:18.868Z,20.00
2022-10-11T20:01:52.422Z,19.90
2022-10-11T20:04:47.486Z,20.00
2022-10-11T20:07:10.461Z,19.90
2022-10-11T20:09:40.114Z,19.90
2022-10-11T20:12:10.755Z,19.90
2022-10-11T20:14:38.968Z,19.90
2022-10-11T20:17:07.285Z,19.80
2022-10-11T20:19:35.664Z,19.80
2022-10-11T20:22:03.905Z,19.80
2022-10-11T20:24:34.607Z,19.80
2022-10-11T20:27:05.193Z,19.70
2022-10-11T20:29:33.272Z,19.70
2022-10-11T20:32:01.331Z,19.70
2022-10-11T20:34:30.420Z,19.60
2022-10-11T20:36:58.745Z,19.50
2022-10-11T20:39:27.370Z,19.40
2022-10-11T20:41:55.639Z,19.40
2022-10-11T20:44:25.433Z,19.30
2022-10-11T20:46:53.625Z,19.30
2022-10-11T20:49:22.637Z,19.20
2022-10-11T20:51:50.940Z,19.10
2022-10-11T20:54:19.431Z,18.90
2022-10-11T20:56:47.589Z,18.90
2022-10-11T20:59:15.616Z,18.90
2022-10-11T21:01:45.308Z,18.80
2022-10-11T21:04:18.796Z,18.70
2022-10-11T21:06:47.981Z,18.60
2022-10-11T21:09:17.252Z,18.60
2022-10-11T21:11:45.891Z,18.50
2022-10-11T21:14:14.362Z,18.50
2022-10-11T21:16:44.054Z,18.40
2022-10-11T21:19:16.131Z,18.40
2022-10-11T21:21:50.911Z,18.40
2022-10-11T21:24:21.461Z,18.40
2022-10-11T21:26:49.750Z,18.40
2022-10-11T21:29:20.167Z,18.30
2022-10-11T21:31:49.824Z,18.30
2022-10-11T21:34:20.541Z,18.20
2022-10-11T21:36:48.736Z,18.10
2022-10-11T21:39:16.915Z,18.00
2022-10-11T21:41:45.074Z,18.00
2022-10-11T21:44:13.303Z,18.00
2022-10-11T21:47:05.487Z,17.90
2022-10-11T21:49:30.937Z,17.90
2022-10-11T21:51:58.979Z,17.80
2022-10-11T21:54:27.167Z,17.70
2022-10-11T21:56:55.448Z,17.60
2022-10-11T21:59:23.585Z,17.60
2022-10-11T22:01:51.990Z,17.50
2022-10-11T22:04:20.194Z,17.50
2022-10-11T22:06:51.972Z,17.50
2022-10-11T22:09:22.022Z,17.50
2022-10-11T22:11:50.232Z,17.60
2022-10-11T22:14:20.883Z,17.50
2022-10-11T22:16:49.575Z,17.40
2022-10-11T22:19:17.741Z,17.40
2022-10-11T22:21:46.121Z,17.40
2022-10-11T22:24:16.630Z,17.50
2022-10-11T22:26:46.973Z,17.50
2022-10-11T22:29:15.105Z,17.50
2022-10-11T22:31:43.432Z,17.50
2022-10-11T22:34:11.632Z,17.60
2022-10-11T22:36:39.865Z,17.60
2022-10-11T22:39:10.084Z,17.50
2022-10-11T22:41:41.851Z,17.50
2022-10-11T22:44:10.027Z,17.50
2022-10-11T22:46:38.232Z,17.50
2022-10-11T22:49:08.553Z,17.50
2022-10-11T22:51:39.597Z,17.50
2022-10-11T22:54:07.840Z,17.50
2022-10-11T22:56:36.018Z,17.40
2022-10-11T22:59:07.783Z,17.40
2022-10-11T23:01:36.047Z,17.40
2022-10-11T23:04:06.660Z,17.30
2022-10-11T23:06:34.965Z,17.30
2022-10-11T23:09:03.437Z,17.20
2022-10-11T23:11:31.613Z,17.20
2022-10-11T23:13:59.766Z,17.20
2022-10-11T23:16:29.292Z,17.20
2022-10-11T23:18:57.491Z,17.10
2022-10-11T23:21:25.748Z,17.10
2022-10-11T23:23:56.583Z,17.10
2022-10-11T23:26:24.801Z,17.00
2022-10-11T23:28:56.201Z,17.00
2022-10-11T23:31:24.411Z,17.00
2022-10-11T23:33:54.904Z,16.90
2022-10-11T23:36:24.848Z,16.90
2022-10-11T23:38:54.023Z,16.90
2022-10-11T23:41:23.339Z,16.90
2022-10-11T23:43:51.600Z,16.90
2022-10-11T23:46:20.054Z,16.90
2022-10-11T23:48:50.735Z,16.90
2022-10-11T23:51:22.766Z,16.90
2022-10-11T23:53:51.011Z,16.80
2022-10-11T23:56:21.531Z,16.80
2022-10-11T23:58:50.136Z,16.70
